sensor_id;sensor_type;location;lat;lon;timestamp;pressure;altitude;pressure_sealevel;temperature;humidity
54600;BME280;40500;51.084;16.958;2023-04-06T00:01:33;100857.06;;;-1.91;100.00
54600;BME280;40500;51.084;16.958;2023-04-06T00:04:01;100854.13;;;-1.96;100.00
54600;BME280;40500;51.084;16.958;2023-04-06T00:06:29;100854.85;;;-1.99;100.00
54600;BME280;40500;51.084;16.958;2023-04-06T00:08:57;100855.23;;;-2.03;100.00
54600;BME280;40500;51.084;16.958;2023-04-06T00:11:24;100854.05;;;-2.06;100.00
54600;BME280;40500;51.084;16.958;2023-04-06T00:13:53;100855.27;;;-2.10;100.00
54600;BME280;40500;51.084;16.958;2023-04-06T00:16:20;100856.52;;;-2.12;100.00
54600;BME280;40500;51.084;16.958;2023-04-06T00:18:51;100853.19;;;-2.14;100.00
54600;BME280;40500;51.084;16.958;2023-04-06T00:21:19;100854.49;;;-2.16;100.00
54600;BME280;40500;51.084;16.958;2023-04-06T00:23:47;100856.55;;;-2.15;100.00
54600;BME280;40500;51.084;16.958;2023-04-06T00:26:14;100851.17;;;-2.17;100.00
54600;BME280;40500;51.084;16.958;2023-04-06T00:28:44;100856.70;;;-2.16;100.00
54600;BME280;40500;51.084;16.958;2023-04-06T00:31:11;100852.02;;;-2.17;100.00
54600;BME280;40500;51.084;16.958;2023-04-06T00:33:39;100854.75;;;-2.18;100.00
54600;BME280;40500;51.084;16.958;2023-04-06T00:36:07;100849.63;;;-2.17;100.00
54600;BME280;40500;51.084;16.958;2023-04-06T00:38:35;100849.95;;;-2.18;100.00
54600;BME280;40500;51.084;16.958;2023-04-06T00:41:03;100848.17;;;-2.19;100.00
54600;BME280;40500;51.084;16.958;2023-04-06T00:43:31;100847.45;;;-2.20;100.00
54600;BME280;40500;51.084;16.958;2023-04-06T00:45:59;100844.67;;;-2.21;100.00
54600;BME280;40500;51.084;16.958;2023-04-06T00:48:27;100843.48;;;-2.21;100.00
54600;BME280;40500;51.084;16.958;2023-04-06T00:50:54;100843.66;;;-2.21;100.00
54600;BME280;40500;51.084;16.958;2023-04-06T00:53:22;100841.94;;;-2.20;100.00
54600;BME280;40500;51.084;16.958;2023-04-06T00:55:51;100848.55;;;-2.22;100.00
54600;BME280;40500;51.084;16.958;2023-04-06T00:58:18;100853.42;;;-2.29;100.00
54600;BME280;40500;51.084;16.958;2023-04-06T01:00:51;100853.23;;;-2.37;100.00
54600;BME280;40500;51.084;16.958;2023-04-06T01:03:20;100849.59;;;-2.42;100.00
54600;BME280;40500;51.084;16.958;2023-04-06T01:05:48;100842.64;;;-2.40;100.00
54600;BME280;40500;51.084;16.958;2023-04-06T01:08:20;100843.48;;;-2.37;100.00
54600;BME280;40500;51.084;16.958;2023-04-06T01:10:48;100850.70;;;-2.35;100.00
54600;BME280;40500;51.084;16.958;2023-04-06T01:13:24;100848.09;;;-2.41;100.00
54600;BME280;40500;51.084;16.958;2023-04-06T01:15:57;100848.81;;;-2.44;100.00
54600;BME280;40500;51.084;16.958;2023-04-06T01:18:30;100854.23;;;-2.50;100.00
54600;BME280;40500;51.084;16.958;2023-04-06T01:21:09;100847.12;;;-2.55;100.00
54600;BME280;40500;51.084;16.958;2023-04-06T01:23:48;100852.77;;;-2.59;100.00
54600;BME280;40500;51.084;16.958;2023-04-06T01:26:18;100850.66;;;-2.64;100.00
54600;BME280;40500;51.084;16.958;2023-04-06T01:28:46;100851.70;;;-2.68;100.00
54600;BME280;40500;51.084;16.958;2023-04-06T01:31:25;100851.39;;;-2.75;100.00
54600;BME280;40500;51.084;16.958;2023-04-06T01:33:53;100851.42;;;-2.78;100.00
54600;BME280;40500;51.084;16.958;2023-04-06T01:36:24;100850.23;;;-2.78;100.00
54600;BME280;40500;51.084;16.958;2023-04-06T01:38:58;100851.88;;;-2.80;100.00
54600;BME280;40500;51.084;16.958;2023-04-06T01:41:32;100851.18;;;-2.80;100.00
54600;BME280;40500;51.084;16.958;2023-04-06T01:44:00;100842.73;;;-2.81;100.00
54600;BME280;40500;51.084;16.958;2023-04-06T01:46:30;100845.38;;;-2.79;100.00
54600;BME280;40500;51.084;16.958;2023-04-06T01:48:58;100849.06;;;-2.77;100.00
54600;BME280;40500;51.084;16.958;2023-04-06T01:51:38;100848.15;;;-2.74;100.00
54600;BME280;40500;51.084;16.958;2023-04-06T01:54:07;100849.00;;;-2.74;100.00
54600;BME280;40500;51.084;16.958;2023-04-06T01:56:54;100842.34;;;-2.74;100.00
54600;BME280;40500;51.084;16.958;2023-04-06T01:59:28;100844.95;;;-2.73;100.00
54600;BME280;40500;51.084;16.958;2023-04-06T02:01:56;100840.61;;;-2.70;100.00
54600;BME280;40500;51.084;16.958;2023-04-06T02:04:25;100840.12;;;-2.70;100.00
54600;BME280;40500;51.084;16.958;2023-04-06T02:06:58;100841.02;;;-2.69;100.00
54600;BME280;40500;51.084;16.958;2023-04-06T02:09:26;100843.38;;;-2.70;100.00
54600;BME280;40500;51.084;16.958;2023-04-06T02:11:54;100844.61;;;-2.73;100.00
54600;BME280;40500;51.084;16.958;2023-04-06T02:14:25;100840.89;;;-2.76;100.00
54600;BME280;40500;51.084;16.958;2023-04-06T02:16:54;100842.11;;;-2.80;100.00
54600;BME280;40500;51.084;16.958;2023-04-06T02:19:22;100839.13;;;-2.81;100.00
54600;BME280;40500;51.084;16.958;2023-04-06T02:21:50;100841.45;;;-2.83;100.00
54600;BME280;40500;51.084;16.958;2023-04-06T02:24:18;100837.59;;;-2.85;100.00
54600;BME280;40500;51.084;16.958;2023-04-06T02:26:45;100837.01;;;-2.86;100.00
54600;BME280;40500;51.084;16.958;2023-04-06T02:29:13;100839.15;;;-2.88;100.00
54600;BME280;40500;51.084;16.958;2023-04-06T02:31:40;100840.80;;;-2.93;100.00
54600;BME280;40500;51.084;16.958;2023-04-06T02:34:09;100839.60;;;-3.00;100.00
54600;BME280;40500;51.084;16.958;2023-04-06T02:36:42;100840.98;;;-3.08;100.00
54600;BME280;40500;51.084;16.958;2023-04-06T02:39:10;100843.06;;;-3.15;100.00
54600;BME280;40500;51.084;16.958;2023-04-06T02:41:38;100846.08;;;-3.20;100.00
54600;BME280;40500;51.084;16.958;2023-04-06T02:44:07;100843.38;;;-3.23;100.00
54600;BME280;40500;51.084;16.958;2023-04-06T02:46:42;100845.70;;;-3.25;100.00
54600;BME280;40500;51.084;16.958;2023-04-06T02:49:09;100851.61;;;-3.26;100.00
54600;BME280;40500;51.084;16.958;2023-04-06T02:51:38;100853.38;;;-3.29;100.00
54600;BME280;40500;51.084;16.958;2023-04-06T02:54:14;100850.21;;;-3.31;100.00
54600;BME280;40500;51.084;16.958;2023-04-06T02:56:42;100849.55;;;-3.30;100.00
54600;BME280;40500;51.084;16.958;2023-04-06T02:59:09;100852.10;;;-3.31;100.00
54600;BME280;40500;51.084;16.958;2023-04-06T03:01:38;100859.34;;;-3.33;100.00
54600;BME280;40500;51.084;16.958;2023-04-06T03:04:06;100857.93;;;-3.34;100.00
54600;BME280;40500;51.084;16.958;2023-04-06T03:06:34;100865.84;;;-3.37;100.00
54600;BME280;40500;51.084;16.958;2023-04-06T03:09:08;100862.13;;;-3.40;100.00
54600;BME280;40500;51.084;16.958;2023-04-06T03:11:36;100863.09;;;-3.41;100.00
54600;BME280;40500;51.084;16.958;2023-04-06T03:14:04;100870.20;;;-3.43;100.00
54600;BME280;40500;51.084;16.958;2023-04-06T03:16:32;100866.74;;;-3.47;100.00
54600;BME280;40500;51.084;16.958;2023-04-06T03:19:00;100871.30;;;-3.48;100.00
54600;BME280;40500;51.084;16.958;2023-04-06T03:21:29;100872.67;;;-3.48;100.00
54600;BME280;40500;51.084;16.958;2023-04-06T03:23:56;100876.76;;;-3.48;100.00
54600;BME280;40500;51.084;16.958;2023-04-06T03:26:24;100878.08;;;-3.49;100.00
54600;BME280;40500;51.084;16.958;2023-04-06T03:28:52;100879.73;;;-3.50;100.00
54600;BME280;40500;51.084;16.958;2023-04-06T03:31:21;100878.90;;;-3.50;100.00
54600;BME280;40500;51.084;16.958;2023-04-06T03:33:57;100879.84;;;-3.48;100.00
54600;BME280;40500;51.084;16.958;2023-04-06T03:36:33;100881.42;;;-3.47;100.00
54600;BME280;40500;51.084;16.958;2023-04-06T03:39:02;100880.13;;;-3.46;100.00
54600;BME280;40500;51.084;16.958;2023-04-06T03:41:32;100882.03;;;-3.46;100.00
54600;BME280;40500;51.084;16.958;2023-04-06T03:44:12;100882.30;;;-3.47;100.00
54600;BME280;40500;51.084;16.958;2023-04-06T03:46:40;100882.65;;;-3.50;100.00
54600;BME280;40500;51.084;16.958;2023-04-06T03:49:08;100888.70;;;-3.53;100.00
54600;BME280;40500;51.084;16.958;2023-04-06T03:51:36;100889.34;;;-3.57;100.00
54600;BME280;40500;51.084;16.958;2023-04-06T03:54:04;100891.33;;;-3.59;100.00
54600;BME280;40500;51.084;16.958;2023-04-06T03:56:31;100892.98;;;-3.56;100.00
54600;BME280;40500;51.084;16.958;2023-04-06T03:58:59;100896.46;;;-3.55;100.00
54600;BME280;40500;51.084;16.958;2023-04-06T04:01:27;100895.96;;;-3.55;100.00
54600;BME280;40500;51.084;16.958;2023-04-06T04:03:55;100902.52;;;-3.54;100.00
54600;BME280;40500;51.084;16.958;2023-04-06T04:06:23;100904.92;;;-3.53;100.00
54600;BME280;40500;51.084;16.958;2023-04-06T04:08:52;100901.09;;;-3.55;100.00
54600;BME280;40500;51.084;16.958;2023-04-06T04:11:20;100901.23;;;-3.52;100.00
54600;BME280;40500;51.084;16.958;2023-04-06T04:13:50;100901.08;;;-3.51;100.00
54600;BME280;40500;51.084;16.958;2023-04-06T04:16:17;100900.51;;;-3.53;100.00
54600;BME280;40500;51.084;16.958;2023-04-06T04:18:45;100903.27;;;-3.52;100.00
54600;BME280;40500;51.084;16.958;2023-04-06T04:21:14;100895.00;;;-3.50;100.00
54600;BME280;40500;51.084;16.958;2023-04-06T04:23:41;100902.20;;;-3.47;100.00
54600;BME280;40500;51.084;16.958;2023-04-06T04:26:09;100900.33;;;-3.46;100.00
54600;BME280;40500;51.084;16.958;2023-04-06T04:28:37;100899.08;;;-3.47;100.00
54600;BME280;40500;51.084;16.958;2023-04-06T04:31:05;100897.07;;;-3.50;100.00
54600;BME280;40500;51.084;16.958;2023-04-06T04:33:34;100898.22;;;-3.50;100.00
54600;BME280;40500;51.084;16.958;2023-04-06T04:36:05;100902.52;;;-3.50;100.00
54600;BME280;40500;51.084;16.958;2023-04-06T04:38:38;100900.47;;;-3.50;100.00
54600;BME280;40500;51.084;16.958;2023-04-06T04:41:06;100905.77;;;-3.50;100.00
54600;BME280;40500;51.084;16.958;2023-04-06T04:43:35;100906.41;;;-3.51;100.00
54600;BME280;40500;51.084;16.958;2023-04-06T04:46:03;100909.21;;;-3.50;100.00
54600;BME280;40500;51.084;16.958;2023-04-06T04:48:36;100902.63;;;-3.48;100.00
54600;BME280;40500;51.084;16.958;2023-04-06T04:51:06;100904.39;;;-3.47;100.00
54600;BME280;40500;51.084;16.958;2023-04-06T04:53:52;100909.43;;;-3.45;100.00
54600;BME280;40500;51.084;16.958;2023-04-06T04:56:23;100909.52;;;-3.44;100.00
54600;BME280;40500;51.084;16.958;2023-04-06T04:58:54;100908.19;;;-3.43;100.00
54600;BME280;40500;51.084;16.958;2023-04-06T05:01:22;100907.77;;;-3.41;100.00
54600;BME280;40500;51.084;16.958;2023-04-06T05:03:50;100909.70;;;-3.37;100.00
54600;BME280;40500;51.084;16.958;2023-04-06T05:06:18;100907.73;;;-3.34;100.00
54600;BME280;40500;51.084;16.958;2023-04-06T05:08:46;100906.23;;;-3.30;100.00
54600;BME280;40500;51.084;16.958;2023-04-06T05:11:14;100906.81;;;-3.25;100.00
54600;BME280;40500;51.084;16.958;2023-04-06T05:13:45;100913.72;;;-3.17;100.00
54600;BME280;40500;51.084;16.958;2023-04-06T05:16:17;100907.73;;;-3.09;100.00
54600;BME280;40500;51.084;16.958;2023-04-06T05:18:45;100908.70;;;-3.03;100.00
54600;BME280;40500;51.084;16.958;2023-04-06T05:21:15;100908.41;;;-2.98;100.00
54600;BME280;40500;51.084;16.958;2023-04-06T05:23:54;100912.47;;;-2.92;100.00
54600;BME280;40500;51.084;16.958;2023-04-06T05:26:22;100913.62;;;-2.86;100.00
54600;BME280;40500;51.084;16.958;2023-04-06T05:28:52;100917.73;;;-2.78;100.00
54600;BME280;40500;51.084;16.958;2023-04-06T05:31:20;100914.06;;;-2.72;100.00
54600;BME280;40500;51.084;16.958;2023-04-06T05:33:50;100915.59;;;-2.65;100.00
54600;BME280;40500;51.084;16.958;2023-04-06T05:36:28;100917.14;;;-2.58;100.00
54600;BME280;40500;51.084;16.958;2023-04-06T05:38:55;100918.30;;;-2.51;100.00
54600;BME280;40500;51.084;16.958;2023-04-06T05:41:32;100920.91;;;-2.43;100.00
54600;BME280;40500;51.084;16.958;2023-04-06T05:44:00;100922.84;;;-2.33;100.00
54600;BME280;40500;51.084;16.958;2023-04-06T05:46:28;100919.00;;;-2.24;100.00
54600;BME280;40500;51.084;16.958;2023-04-06T05:48:57;100918.48;;;-2.16;100.00
54600;BME280;40500;51.084;16.958;2023-04-06T05:51:27;100921.80;;;-2.07;100.00
54600;BME280;40500;51.084;16.958;2023-04-06T05:53:55;100916.36;;;-1.97;100.00
54600;BME280;40500;51.084;16.958;2023-04-06T05:56:23;100913.10;;;-1.89;100.00
54600;BME280;40500;51.084;16.958;2023-04-06T05:58:52;100919.47;;;-1.77;100.00
54600;BME280;40500;51.084;16.958;2023-04-06T06:01:24;100917.52;;;-1.57;100.00
54600;BME280;40500;51.084;16.958;2023-04-06T06:03:52;100918.08;;;-1.36;100.00
54600;BME280;40500;51.084;16.958;2023-04-06T06:06:20;100915.80;;;-1.19;100.00
54600;BME280;40500;51.084;16.958;2023-04-06T06:09:03;100914.96;;;-1.06;100.00
54600;BME280;40500;51.084;16.958;2023-04-06T06:11:34;100914.38;;;-0.94;100.00
54600;BME280;40500;51.084;16.958;2023-04-06T06:14:02;100916.36;;;-0.83;100.00
54600;BME280;40500;51.084;16.958;2023-04-06T06:16:34;100915.09;;;-0.71;100.00
54600;BME280;40500;51.084;16.958;2023-04-06T06:19:03;100910.02;;;-0.59;100.00
54600;BME280;40500;51.084;16.958;2023-04-06T06:21:31;100908.38;;;-0.48;100.00
54600;BME280;40500;51.084;16.958;2023-04-06T06:23:59;100906.96;;;-0.35;100.00
54600;BME280;40500;51.084;16.958;2023-04-06T06:26:27;100908.43;;;-0.23;100.00
54600;BME280;40500;51.084;16.958;2023-04-06T06:28:55;100909.04;;;-0.11;100.00
54600;BME280;40500;51.084;16.958;2023-04-06T06:31:23;100907.09;;;0.03;100.00
54600;BME280;40500;51.084;16.958;2023-04-06T06:33:51;100908.05;;;0.15;100.00
54600;BME280;40500;51.084;16.958;2023-04-06T06:36:19;100905.81;;;0.25;100.00
54600;BME280;40500;51.084;16.958;2023-04-06T06:38:47;100902.88;;;0.35;100.00
54600;BME280;40500;51.084;16.958;2023-04-06T06:41:17;100906.41;;;0.49;100.00
54600;BME280;40500;51.084;16.958;2023-04-06T06:43:45;100902.54;;;0.62;100.00
54600;BME280;40500;51.084;16.958;2023-04-06T06:46:12;100899.83;;;0.74;100.00
54600;BME280;40500;51.084;16.958;2023-04-06T06:48:40;100902.66;;;0.87;100.00
54600;BME280;40500;51.084;16.958;2023-04-06T06:51:08;100906.81;;;0.99;100.00
54600;BME280;40500;51.084;16.958;2023-04-06T06:53:36;100906.98;;;1.10;100.00
54600;BME280;40500;51.084;16.958;2023-04-06T06:56:05;100906.65;;;1.22;100.00
54600;BME280;40500;51.084;16.958;2023-04-06T06:58:32;100906.33;;;1.34;100.00
54600;BME280;40500;51.084;16.958;2023-04-06T07:01:00;100908.39;;;1.45;100.00
54600;BME280;40500;51.084;16.958;2023-04-06T07:03:29;100909.93;;;1.57;100.00
54600;BME280;40500;51.084;16.958;2023-04-06T07:05:58;100904.52;;;1.67;100.00
54600;BME280;40500;51.084;16.958;2023-04-06T07:08:25;100908.42;;;1.77;100.00
54600;BME280;40500;51.084;16.958;2023-04-06T07:10:53;100905.39;;;1.86;100.00
54600;BME280;40500;51.084;16.958;2023-04-06T07:13:23;100904.30;;;1.97;100.00
54600;BME280;40500;51.084;16.958;2023-04-06T07:15:53;100906.14;;;2.08;100.00
54600;BME280;40500;51.084;16.958;2023-04-06T07:18:21;100906.88;;;2.16;100.00
54600;BME280;40500;51.084;16.958;2023-04-06T07:20:49;100907.43;;;2.24;100.00
54600;BME280;40500;51.084;16.958;2023-04-06T07:23:17;100907.61;;;2.30;100.00
54600;BME280;40500;51.084;16.958;2023-04-06T07:25:45;100906.39;;;2.37;100.00
54600;BME280;40500;51.084;16.958;2023-04-06T07:28:13;100900.58;;;2.47;100.00
54600;BME280;40500;51.084;16.958;2023-04-06T07:30:41;100901.52;;;2.57;100.00
54600;BME280;40500;51.084;16.958;2023-04-06T07:33:09;100903.13;;;2.66;100.00
54600;BME280;40500;51.084;16.958;2023-04-06T07:35:38;100903.55;;;2.76;100.00
54600;BME280;40500;51.084;16.958;2023-04-06T07:38:06;100902.02;;;2.85;100.00
54600;BME280;40500;51.084;16.958;2023-04-06T07:40:33;100903.09;;;2.93;100.00
54600;BME280;40500;51.084;16.958;2023-04-06T07:43:01;100907.41;;;3.01;100.00
54600;BME280;40500;51.084;16.958;2023-04-06T07:45:30;100906.05;;;3.09;100.00
54600;BME280;40500;51.084;16.958;2023-04-06T07:47:58;100904.12;;;3.16;100.00
54600;BME280;40500;51.084;16.958;2023-04-06T07:50:27;100911.09;;;3.26;100.00
54600;BME280;40500;51.084;16.958;2023-04-06T07:52:55;100909.30;;;3.31;100.00
54600;BME280;40500;51.084;16.958;2023-04-06T07:55:23;100909.96;;;3.38;100.00
54600;BME280;40500;51.084;16.958;2023-04-06T07:57:51;100910.24;;;3.43;100.00
54600;BME280;40500;51.084;16.958;2023-04-06T08:00:20;100906.56;;;3.49;100.00
54600;BME280;40500;51.084;16.958;2023-04-06T08:02:48;100908.63;;;3.57;100.00
54600;BME280;40500;51.084;16.958;2023-04-06T08:05:16;100912.77;;;3.64;100.00
54600;BME280;40500;51.084;16.958;2023-04-06T08:07:44;100911.02;;;3.72;100.00
54600;BME280;40500;51.084;16.958;2023-04-06T08:10:12;100905.05;;;3.77;100.00
54600;BME280;40500;51.084;16.958;2023-04-06T08:12:40;100903.59;;;3.82;100.00
54600;BME280;40500;51.084;16.958;2023-04-06T08:15:08;100901.81;;;3.88;100.00
54600;BME280;40500;51.084;16.958;2023-04-06T08:17:36;100900.94;;;3.97;100.00
54600;BME280;40500;51.084;16.958;2023-04-06T08:20:05;100901.39;;;4.03;100.00
54600;BME280;40500;51.084;16.958;2023-04-06T08:22:33;100899.79;;;4.10;100.00
54600;BME280;40500;51.084;16.958;2023-04-06T08:25:01;100902.88;;;4.18;100.00
54600;BME280;40500;51.084;16.958;2023-04-06T08:27:28;100901.54;;;4.20;100.00
54600;BME280;40500;51.084;16.958;2023-04-06T08:29:56;100905.59;;;4.24;100.00
54600;BME280;40500;51.084;16.958;2023-04-06T08:32:25;100899.42;;;4.28;100.00
54600;BME280;40500;51.084;16.958;2023-04-06T08:34:54;100898.29;;;4.32;100.00
54600;BME280;40500;51.084;16.958;2023-04-06T08:37:22;100898.85;;;4.35;100.00
54600;BME280;40500;51.084;16.958;2023-04-06T08:39:50;100895.66;;;4.41;100.00
54600;BME280;40500;51.084;16.958;2023-04-06T08:42:21;100899.75;;;4.47;100.00
54600;BME280;40500;51.084;16.958;2023-04-06T08:44:50;100899.00;;;4.54;100.00
54600;BME280;40500;51.084;16.958;2023-04-06T08:47:19;100893.90;;;4.60;100.00
54600;BME280;40500;51.084;16.958;2023-04-06T08:49:52;100896.02;;;4.63;100.00
54600;BME280;40500;51.084;16.958;2023-04-06T08:52:21;100895.05;;;4.67;100.00
54600;BME280;40500;51.084;16.958;2023-04-06T08:54:48;100891.69;;;4.74;100.00
54600;BME280;40500;51.084;16.958;2023-04-06T08:57:17;100892.16;;;4.82;100.00
54600;BME280;40500;51.084;16.958;2023-04-06T08:59:47;100890.02;;;4.89;100.00
54600;BME280;40500;51.084;16.958;2023-04-06T09:02:18;100892.91;;;4.97;100.00
54600;BME280;40500;51.084;16.958;2023-04-06T09:04:48;100889.71;;;5.04;100.00
54600;BME280;40500;51.084;16.958;2023-04-06T09:07:16;100890.60;;;5.05;100.00
54600;BME280;40500;51.084;16.958;2023-04-06T09:09:44;100889.98;;;5.11;100.00
54600;BME280;40500;51.084;16.958;2023-04-06T09:12:23;100886.58;;;5.16;100.00
54600;BME280;40500;51.084;16.958;2023-04-06T09:14:51;100884.06;;;5.22;100.00
54600;BME280;40500;51.084;16.958;2023-04-06T09:17:23;100884.14;;;5.28;100.00
54600;BME280;40500;51.084;16.958;2023-04-06T09:19:51;100885.45;;;5.34;100.00
54600;BME280;40500;51.084;16.958;2023-04-06T09:22:19;100887.94;;;5.38;100.00
54600;BME280;40500;51.084;16.958;2023-04-06T09:24:50;100886.08;;;5.44;100.00
54600;BME280;40500;51.084;16.958;2023-04-06T09:27:28;100874.86;;;5.49;100.00
54600;BME280;40500;51.084;16.958;2023-04-06T09:30:04;100879.08;;;5.52;100.00
54600;BME280;40500;51.084;16.958;2023-04-06T09:32:32;100872.98;;;5.51;100.00
54600;BME280;40500;51.084;16.958;2023-04-06T09:35:12;100866.59;;;5.55;100.00
54600;BME280;40500;51.084;16.958;2023-04-06T09:37:40;100868.27;;;5.64;100.00
54600;BME280;40500;51.084;16.958;2023-04-06T09:40:08;100869.40;;;5.72;100.00
54600;BME280;40500;51.084;16.958;2023-04-06T09:42:36;100874.45;;;5.72;100.00
54600;BME280;40500;51.084;16.958;2023-04-06T09:45:06;100872.36;;;5.73;100.00
54600;BME280;40500;51.084;16.958;2023-04-06T09:47:36;100870.67;;;5.77;100.00
54600;BME280;40500;51.084;16.958;2023-04-06T09:50:06;100871.52;;;5.75;100.00
54600;BME280;40500;51.084;16.958;2023-04-06T09:52:41;100871.30;;;5.71;100.00
54600;BME280;40500;51.084;16.958;2023-04-06T09:55:10;100864.04;;;5.73;100.00
54600;BME280;40500;51.084;16.958;2023-04-06T09:57:45;100860.23;;;5.75;100.00
54600;BME280;40500;51.084;16.958;2023-04-06T10:00:17;100863.54;;;5.75;100.00
54600;BME280;40500;51.084;16.958;2023-04-06T10:02:52;100863.47;;;5.85;100.00
54600;BME280;40500;51.084;16.958;2023-04-06T10:05:30;100861.19;;;5.97;100.00
54600;BME280;40500;51.084;16.958;2023-04-06T10:08:04;100860.61;;;6.09;100.00
54600;BME280;40500;51.084;16.958;2023-04-06T10:10:33;100858.34;;;6.25;100.00
54600;BME280;40500;51.084;16.958;2023-04-06T10:13:01;100850.30;;;6.42;100.00
54600;BME280;40500;51.084;16.958;2023-04-06T10:15:29;100854.02;;;6.50;100.00
54600;BME280;40500;51.084;16.958;2023-04-06T10:17:58;100849.15;;;6.50;100.00
54600;BME280;40500;51.084;16.958;2023-04-06T10:20:29;100848.08;;;6.47;100.00
54600;BME280;40500;51.084;16.958;2023-04-06T10:23:06;100849.31;;;6.49;100.00
54600;BME280;40500;51.084;16.958;2023-04-06T10:25:36;100851.59;;;6.51;100.00
54600;BME280;40500;51.084;16.958;2023-04-06T10:28:07;100846.74;;;6.53;100.00
54600;BME280;40500;51.084;16.958;2023-04-06T10:30:41;100843.43;;;6.53;100.00
54600;BME280;40500;51.084;16.958;2023-04-06T10:33:14;100845.05;;;6.59;100.00
54600;BME280;40500;51.084;16.958;2023-04-06T10:35:42;100836.77;;;6.69;100.00
54600;BME280;40500;51.084;16.958;2023-04-06T10:38:10;100836.13;;;6.77;100.00
54600;BME280;40500;51.084;16.958;2023-04-06T10:40:40;100833.42;;;6.89;100.00
54600;BME280;40500;51.084;16.958;2023-04-06T10:43:10;100826.13;;;6.95;100.00
54600;BME280;40500;51.084;16.958;2023-04-06T10:45:39;100824.25;;;7.01;100.00
54600;BME280;40500;51.084;16.958;2023-04-06T10:48:17;100812.76;;;7.00;100.00
54600;BME280;40500;51.084;16.958;2023-04-06T10:50:48;100816.40;;;6.99;100.00
54600;BME280;40500;51.084;16.958;2023-04-06T10:53:22;100816.20;;;6.93;100.00
54600;BME280;40500;51.084;16.958;2023-04-06T10:55:50;100815.02;;;6.98;100.00
54600;BME280;40500;51.084;16.958;2023-04-06T10:58:19;100818.83;;;6.95;100.00
54600;BME280;40500;51.084;16.958;2023-04-06T11:00:48;100816.90;;;6.93;100.00
54600;BME280;40500;51.084;16.958;2023-04-06T11:03:18;100817.59;;;6.92;100.00
54600;BME280;40500;51.084;16.958;2023-04-06T11:05:46;100810.81;;;6.95;100.00
54600;BME280;40500;51.084;16.958;2023-04-06T11:08:27;100813.34;;;7.13;100.00
54600;BME280;40500;51.084;16.958;2023-04-06T11:11:06;100808.00;;;7.25;100.00
54600;BME280;40500;51.084;16.958;2023-04-06T11:13:41;100806.27;;;7.29;100.00
54600;BME280;40500;51.084;16.958;2023-04-06T11:16:14;100804.92;;;7.39;100.00
54600;BME280;40500;51.084;16.958;2023-04-06T11:18:53;100803.21;;;7.50;100.00
54600;BME280;40500;51.084;16.958;2023-04-06T11:21:32;100799.58;;;7.59;100.00
54600;BME280;40500;51.084;16.958;2023-04-06T11:24:08;100797.01;;;7.76;100.00
54600;BME280;40500;51.084;16.958;2023-04-06T11:26:41;100798.75;;;7.78;100.00
54600;BME280;40500;51.084;16.958;2023-04-06T11:29:09;100799.06;;;7.64;100.00
54600;BME280;40500;51.084;16.958;2023-04-06T11:31:45;100795.05;;;7.63;100.00
54600;BME280;40500;51.084;16.958;2023-04-06T11:34:16;100787.55;;;7.60;100.00
54600;BME280;40500;51.084;16.958;2023-04-06T11:36:45;100788.79;;;7.66;100.00
54600;BME280;40500;51.084;16.958;2023-04-06T11:39:17;100782.70;;;7.75;100.00
54600;BME280;40500;51.084;16.958;2023-04-06T11:41:48;100774.17;;;7.81;99.97
54600;BME280;40500;51.084;16.958;2023-04-06T11:44:26;100783.05;;;7.77;98.21
54600;BME280;40500;51.084;16.958;2023-04-06T11:46:56;100778.02;;;7.81;100.00
54600;BME280;40500;51.084;16.958;2023-04-06T11:49:28;100778.02;;;8.01;100.00
54600;BME280;40500;51.084;16.958;2023-04-06T11:51:55;100775.25;;;8.18;100.00
54600;BME280;40500;51.084;16.958;2023-04-06T11:54:34;100770.53;;;8.28;100.00
54600;BME280;40500;51.084;16.958;2023-04-06T11:57:03;100763.38;;;8.23;100.00
54600;BME280;40500;51.084;16.958;2023-04-06T11:59:31;100768.78;;;8.20;100.00
54600;BME280;40500;51.084;16.958;2023-04-06T12:01:58;100762.33;;;8.22;100.00
54600;BME280;40500;51.084;16.958;2023-04-06T12:04:26;100763.20;;;8.28;100.00
54600;BME280;40500;51.084;16.958;2023-04-06T12:06:54;100761.09;;;8.37;96.60
54600;BME280;40500;51.084;16.958;2023-04-06T12:09:22;100764.59;;;8.36;96.53
54600;BME280;40500;51.084;16.958;2023-04-06T12:11:50;100757.79;;;8.39;97.74
54600;BME280;40500;51.084;16.958;2023-04-06T12:14:17;100755.73;;;8.45;94.19
54600;BME280;40500;51.084;16.958;2023-04-06T12:16:45;100751.35;;;8.46;93.14
54600;BME280;40500;51.084;16.958;2023-04-06T12:19:13;100744.37;;;8.44;89.01
54600;BME280;40500;51.084;16.958;2023-04-06T12:21:41;100749.61;;;8.50;91.36
54600;BME280;40500;51.084;16.958;2023-04-06T12:24:09;100739.44;;;8.66;93.83
54600;BME280;40500;51.084;16.958;2023-04-06T12:26:37;100744.78;;;8.89;93.82
54600;BME280;40500;51.084;16.958;2023-04-06T12:29:04;100737.65;;;9.21;93.75
54600;BME280;40500;51.084;16.958;2023-04-06T12:31:35;100730.84;;;9.74;92.07
54600;BME280;40500;51.084;16.958;2023-04-06T12:34:03;100721.40;;;11.26;89.94
54600;BME280;40500;51.084;16.958;2023-04-06T12:36:31;100703.75;;;13.30;77.10
54600;BME280;40500;51.084;16.958;2023-04-06T12:38:59;100695.01;;;15.19;65.62
54600;BME280;40500;51.084;16.958;2023-04-06T12:41:28;100697.27;;;15.42;59.69
54600;BME280;40500;51.084;16.958;2023-04-06T12:43:57;100697.70;;;14.92;65.53
54600;BME280;40500;51.084;16.958;2023-04-06T12:46:26;100692.17;;;17.06;60.21
54600;BME280;40500;51.084;16.958;2023-04-06T12:48:54;100683.98;;;18.83;62.74